• Join FlightAware (Why Join?)
  • Login
  • US Flag 
07:12AM EST


 

Airport Tracker/Info


-or-


 

Live Flight TrackerFlight Track Log ✈ UAL4180 ✈ 29-Aug-2014 ✈ KAUS - KIAH

Flight Track Log - Related Links

Times and Time Zones

All times are in EDT time to prevent confusion due to time zone crossing. See the UAL4180 flight status page for this flight to view local times or setup timezone preferences in your user account.

Time Position Orientation Groundspeed Altitude Reporting Facility
EDT Latitude Longitude Course Direction KTS MPH feet Rate Location/Type
06:47AM 30.1753 -97.6583 97° East 158 182 1,100  Level Houston Center
06:48AM 30.1497 -97.6567 177° South 151 174 2,600 1,680 Climbing Houston Center
06:49AM 30.1364 -97.6028 106° East 236 272 4,000 1,620 Climbing Houston Center
06:50AM 30.1729 -97.4071 90° East  Level Estimated
06:50AM 30.1575 -97.5214 73° East 254 292 5,900  Level Houston Center
06:51AM 30.3610 -97.4260 97° East  Level FlightAware Approximate
06:51AM 30.1797 -97.4392 73° East 263 303 8,000  Level Houston Center
06:52AM 30.3522 -97.3384 97° East  Level FlightAware Approximate
06:52AM 30.2206 -97.3611 59° Northeast 287 330 10,300  Level Houston Center
06:53AM 30.2603 -97.2786 61° Northeast 292 336 11,500 1,140 Climbing Houston Center
06:54AM 30.3019 -97.1872 62° Northeast 317 365 12,600 1,320 Climbing Houston Center
06:55AM 30.3228 -97.0842 77° East 338 389 14,200 1,140 Climbing Houston Center
06:56AM 30.3286 -96.9739 86° East 342 394 14,900 300 Climbing Houston Center
06:57AM 30.3325 -96.8275 88° East 372 428 14,900  Level Houston Center
06:58AM 30.3386 -96.7047 87° East 382 440 14,900  Level Houston Center
06:59AM 30.3428 -96.5872 88° East 372 428 14,900  Level Houston Center
07:00AM 30.3469 -96.4664 88° East 373 429 15,000 120 Climbing Houston Center
07:00AM 30.3489 -96.4122 88° East 392 451 15,100  Climbing Houston Center
07:01AM 30.3511 -96.3636 87° East 391 450 15,000 -360 Descending Houston Center
07:01AM 30.3506 -96.3425 92° East 385 443 14,900  Descending Houston Center
07:02AM 30.3461 -96.2553 93° East 317 365 15,000  Climbing Houston Center
07:02AM 30.3417 -96.2386 107° East 332 382 14,900 -1,200 Descending Houston Center
07:03AM 30.2922 -96.1622 127° Southeast 385 443 13,800 -1,200 Descending Houston Center
07:03AM 30.2817 -96.1447 125° Southeast 362 417 13,700 -1,260 Descending Houston Center
07:04AM 30.2194 -96.0472 126° Southeast 378 435 12,400 -1,500 Descending Houston Center
07:05AM 30.1656 -95.9592 125° Southeast 313 360 10,900 -1,500 Descending Houston Center
07:06AM 30.1256 -95.8839 122° Southeast 291 335 9,600 -1,200 Descending Houston Center
07:06AM 30.1264 -95.8839 360° North 301 346 9,600 -1,860 Level Houston Center
07:07AM 30.0822 -95.7972 120° Southeast 278 320 7,600 -1,980 Descending Houston Center
07:08AM 30.0433 -95.7125 118° Southeast 269 310 5,600 -1,740 Descending Houston Center
07:09AM 30.0100 -95.6464 120° Southeast 259 298 4,100 -900 Descending Houston Center
07:10AM 29.9936 -95.5669 103° East 251 289 3,800 -900 Descending Houston Center
07:11AM 29.9925 -95.4917 91° East 243 280 2,300 -1,200 Descending Houston Center
07:12AM 29.9922 -95.4294 90° East 217 250 1,400 -840 Descending Houston Center
07:13AM 29.9933 -95.3861 88° East 163 188 700 -540 Descending Houston Center
07:14AM 29.9933 -95.3428 90° East 152 175 400 -300 Descending Houston Center